03:11
Airports
History
Links
Donate
Help keep this website running!
PayPal
Bitcoin
This page is community maintained. The information is intended for PC simulator navigation or reference.
Always use approved charts for navigation.
MT36
Cottontail Ranch
Cottontail Ranch (MT36)
Big Timber, Montana, United States (59011)
4
Lat/Lng:46° 7' 55.82" N / 110° 2' 49.68" W
46.132172 / -110.047132
Elevation:5340'ft / 1628mMSL
ID / ICAO:MT36
Runways:1
Longest:09-27
Grass 1,127m / 3,696ft
Nearby Weather02:53 GMT 2018-02-21
Nearby weather at KLVM, Mission Field located 35.6 nautical miles from MT36
Altimeter: 30.03
Visibility: 10.0 statute miles
Wind: 7 knots (from 300°)
Temp: -17°c / 1°f
Humidity: 70.9%

METAR: KLVM 210253Z AUTO 30007KT 10SM CLR M17/M21 A3003 RMK AO2 SLP282 T11721211 52012

(Powered by phpweather)
Nearby VORs <50NM
Nearby NDBs
Runway 09 / 27
Dimensions:1126.5 x 15.2m 3696' x 50'ft
Surface:Grass
Edge Lights:Low intensity
Runway 09 [A]Runway 27 [B]
Heading:106°TH 286°TH
Lat:
Lng:
46° 8' 0.85"N
110° 3' 15.01"W
46° 7' 50.78"N
110° 2' 24.33"W
User Notes and Comments
46° 7' 55.82" N / 110° 2' 49.68" W
Distance To
Airport ID:
Nearby Airports
4 Langhus Airstrip 8.2 NM
MT07 SW 220°
4 Baxter Strip 14.8 NM
6U1 NE 34°
(U) Big Timber 22.7 NM
6S0 S 171°
(U) Wheatland County At Harlowton 23.8 NM
KHWQ NNE 22°
4 Wilsall 31.1 NM
9U1 W 259°
4 Foster Ranches 32.8 NM
MT89 SW 225°
(U) Mission Field 35.6 NM
KLVM ( WX ) SSW 212°
VFR Chart
Flight Planning at SkyVector.com